createdAt,value
2022-08-03T00:01:57.526Z,17.40
2022-08-03T00:06:06.714Z,17.30
2022-08-03T00:10:16.068Z,17.20
2022-08-03T00:14:25.275Z,17.20
2022-08-03T00:18:35.445Z,17.10
2022-08-03T00:22:44.375Z,17.00
2022-08-03T00:26:53.303Z,17.00
2022-08-03T00:31:02.342Z,17.00
2022-08-03T00:35:28.674Z,17.00
2022-08-03T00:39:43.674Z,17.10
2022-08-03T00:43:52.504Z,17.20
2022-08-03T00:48:02.094Z,17.20
2022-08-03T00:52:13.052Z,17.30
2022-08-03T00:56:21.813Z,17.20
2022-08-03T01:00:30.626Z,17.20
2022-08-03T01:04:39.295Z,17.10
2022-08-03T01:08:56.034Z,17.00
2022-08-03T01:14:03.537Z,17.00
2022-08-03T01:17:50.953Z,16.90
2022-08-03T01:22:11.094Z,16.70
2022-08-03T01:26:57.275Z,16.70
2022-08-03T01:31:10.311Z,16.70
2022-08-03T01:35:29.545Z,16.70
2022-08-03T01:39:40.964Z,16.70
2022-08-03T01:43:55.190Z,16.70
2022-08-03T01:48:22.501Z,16.60
2022-08-03T01:52:34.154Z,16.60
2022-08-03T01:56:46.757Z,16.60
2022-08-03T02:01:01.302Z,16.50
2022-08-03T02:05:13.184Z,16.50
2022-08-03T02:09:25.092Z,16.60
2022-08-03T02:13:36.398Z,16.60
2022-08-03T02:17:47.466Z,16.60
2022-08-03T02:22:01.018Z,16.60
2022-08-03T02:26:16.628Z,16.60
2022-08-03T02:30:31.153Z,16.60
2022-08-03T02:34:41.575Z,16.40
2022-08-03T02:38:54.158Z,16.40
2022-08-03T02:43:07.462Z,16.40
2022-08-03T02:47:17.197Z,16.20
2022-08-03T02:51:28.201Z,16.10
2022-08-03T02:55:45.614Z,16.10
2022-08-03T02:59:56.565Z,16.10
2022-08-03T03:04:06.555Z,16.10
2022-08-03T03:08:25.770Z,16.20
2022-08-03T03:12:39.898Z,16.20
2022-08-03T03:16:51.882Z,16.10
2022-08-03T03:21:09.190Z,15.90
2022-08-03T03:25:18.807Z,15.80
2022-08-03T03:29:29.308Z,15.80
2022-08-03T03:33:39.684Z,15.80
2022-08-03T03:37:48.517Z,15.70
2022-08-03T03:41:57.658Z,15.80
2022-08-03T03:46:08.275Z,15.80
2022-08-03T03:50:19.544Z,15.70
2022-08-03T03:54:29.438Z,15.70
2022-08-03T03:58:38.304Z,15.60
2022-08-03T04:02:48.567Z,15.60
2022-08-03T04:07:14.951Z,15.60
2022-08-03T04:11:30.031Z,15.50
2022-08-03T04:15:42.723Z,15.50
2022-08-03T04:19:55.389Z,15.50
2022-08-03T04:24:08.585Z,15.50
2022-08-03T04:28:31.277Z,15.40
2022-08-03T04:32:45.823Z,15.40
2022-08-03T04:37:01.243Z,15.40
2022-08-03T04:41:10.718Z,15.30
2022-08-03T04:45:21.169Z,15.30
2022-08-03T04:49:31.532Z,15.20
2022-08-03T04:53:42.131Z,15.30
2022-08-03T04:57:50.848Z,15.30
2022-08-03T05:01:59.632Z,15.30
2022-08-03T05:06:11.037Z,15.30
2022-08-03T05:10:21.786Z,15.30
2022-08-03T05:14:30.567Z,15.40
2022-08-03T05:18:39.268Z,15.50
2022-08-03T05:22:48.012Z,15.60
2022-08-03T05:26:58.159Z,15.60
2022-08-03T05:31:06.982Z,15.60
2022-08-03T05:36:00.925Z,15.70
2022-08-03T05:39:44.438Z,15.70
2022-08-03T05:43:55.962Z,15.60
2022-08-03T05:48:04.915Z,15.60
2022-08-03T05:52:14.232Z,15.70
2022-08-03T05:56:26.933Z,15.60
2022-08-03T06:00:37.119Z,15.70
2022-08-03T06:04:45.777Z,15.70
2022-08-03T06:08:54.676Z,15.70
2022-08-03T06:13:03.355Z,15.70
2022-08-03T06:17:13.891Z,15.80
2022-08-03T06:21:24.034Z,15.80
2022-08-03T06:25:35.814Z,15.90
2022-08-03T06:29:44.528Z,16.00
2022-08-03T06:34:33.027Z,16.20
2022-08-03T06:38:23.482Z,16.30
2022-08-03T06:42:32.212Z,16.40
2022-08-03T06:46:43.578Z,16.60
2022-08-03T06:50:53.841Z,16.70
2022-08-03T06:55:02.615Z,16.80
2022-08-03T07:00:11.052Z,16.90
2022-08-03T07:03:47.603Z,17.00
2022-08-03T07:08:03.398Z,17.10
2022-08-03T07:12:12.304Z,17.20
2022-08-03T07:16:22.643Z,17.40
2022-08-03T07:20:32.800Z,17.40
2022-08-03T07:24:43.660Z,17.50
2022-08-03T07:28:52.351Z,17.60
2022-08-03T07:33:01.199Z,17.70
2022-08-03T07:37:09.938Z,17.80
2022-08-03T07:41:20.118Z,17.90
2022-08-03T07:45:28.910Z,18.00
2022-08-03T07:49:42.249Z,18.20
2022-08-03T07:53:51.069Z,18.30
2022-08-03T07:58:05.516Z,18.40
2022-08-03T08:02:14.736Z,18.50
2022-08-03T08:06:23.758Z,18.70
2022-08-03T08:10:32.911Z,18.90
2022-08-03T08:14:45.948Z,19.10
2022-08-03T08:18:54.698Z,19.20
2022-08-03T08:23:18.592Z,19.40
2022-08-03T08:28:29.784Z,19.50
2022-08-03T08:32:04.155Z,19.70
2022-08-03T08:36:15.417Z,19.80
2022-08-03T08:40:25.055Z,20.00
2022-08-03T08:44:33.721Z,20.20
2022-08-03T08:48:46.224Z,20.50
2022-08-03T08:52:56.593Z,20.80
2022-08-03T08:57:21.061Z,21.20
2022-08-03T09:01:34.808Z,21.50
2022-08-03T09:05:55.854Z,21.80
2022-08-03T09:10:12.730Z,22.10
2022-08-03T09:14:36.773Z,22.40
2022-08-03T09:18:50.426Z,22.70
2022-08-03T09:23:14.056Z,23.10
2022-08-03T09:27:43.375Z,23.40
2022-08-03T09:32:02.060Z,23.60
2022-08-03T09:36:10.782Z,23.70
2022-08-03T09:40:36.622Z,23.90
2022-08-03T09:44:47.451Z,24.10
2022-08-03T09:49:11.480Z,24.50
2022-08-03T09:53:21.340Z,24.80
2022-08-03T09:57:32.131Z,24.80
2022-08-03T10:01:43.010Z,24.90
2022-08-03T10:05:54.802Z,25.10
2022-08-03T10:10:31.765Z,25.40
2022-08-03T10:14:38.594Z,25.40
2022-08-03T10:18:47.272Z,25.60
2022-08-03T10:22:56.624Z,25.90
2022-08-03T10:27:08.203Z,26.00
2022-08-03T10:31:19.798Z,26.20
2022-08-03T10:35:30.905Z,26.30
2022-08-03T10:39:53.589Z,26.30
2022-08-03T10:44:06.976Z,26.50
2022-08-03T10:48:18.172Z,26.90
2022-08-03T10:52:35.113Z,27.00
2022-08-03T10:57:11.649Z,27.10
2022-08-03T11:01:58.855Z,27.30
2022-08-03T11:06:28.647Z,27.20
2022-08-03T11:10:46.264Z,27.20
2022-08-03T11:14:56.808Z,27.20
2022-08-03T11:19:07.440Z,27.20
2022-08-03T11:24:03.105Z,27.10
2022-08-03T11:27:49.462Z,26.90
2022-08-03T11:31:58.751Z,26.40
2022-08-03T11:36:08.250Z,26.00
2022-08-03T11:40:36.772Z,26.30
2022-08-03T11:44:47.610Z,26.60
2022-08-03T11:49:09.459Z,26.40
2022-08-03T11:53:20.523Z,26.30
2022-08-03T11:59:13.094Z,26.30
2022-08-03T12:02:08.397Z,26.50
2022-08-03T12:06:18.299Z,26.20
2022-08-03T12:10:27.294Z,26.10
2022-08-03T12:14:48.601Z,26.20
2022-08-03T12:19:02.569Z,26.30
2022-08-03T12:23:11.782Z,26.40
2022-08-03T12:27:29.850Z,26.50
2022-08-03T12:31:40.167Z,26.50
2022-08-03T12:35:52.622Z,26.40
2022-08-03T12:40:10.569Z,26.40
2022-08-03T12:44:19.911Z,26.40
2022-08-03T12:48:30.178Z,26.60
2022-08-03T12:52:45.316Z,26.70
2022-08-03T12:57:01.997Z,26.20
2022-08-03T13:01:13.708Z,26.00
2022-08-03T13:05:24.032Z,26.10
2022-08-03T13:09:42.524Z,26.20
2022-08-03T13:13:51.646Z,26.40
2022-08-03T13:18:00.711Z,26.00
2022-08-03T13:22:18.279Z,26.10
2022-08-03T13:26:27.028Z,26.40
2022-08-03T13:30:36.162Z,26.70
2022-08-03T13:34:44.891Z,26.80
2022-08-03T13:38:55.058Z,26.40
2022-08-03T13:43:04.497Z,25.80
2022-08-03T13:47:13.188Z,25.80
2022-08-03T13:51:22.951Z,26.00
2022-08-03T13:55:33.807Z,25.90
2022-08-03T13:59:42.529Z,25.70
2022-08-03T14:03:54.264Z,25.50
2022-08-03T14:08:05.317Z,25.70
2022-08-03T14:12:15.949Z,26.00
2022-08-03T14:16:24.705Z,25.90
2022-08-03T14:20:36.882Z,25.90
2022-08-03T14:24:47.770Z,26.20
2022-08-03T14:28:59.609Z,26.00
2022-08-03T14:33:08.367Z,26.00
2022-08-03T14:37:17.096Z,26.40
2022-08-03T14:41:25.884Z,26.60
2022-08-03T14:45:36.132Z,26.60
2022-08-03T14:50:38.676Z,26.80
2022-08-03T14:54:14.036Z,26.80
2022-08-03T14:58:26.941Z,26.40
2022-08-03T15:02:37.361Z,26.00
2022-08-03T15:06:46.115Z,25.80
2022-08-03T15:11:00.171Z,26.00
2022-08-03T15:15:09.935Z,26.00
2022-08-03T15:20:01.681Z,26.00
2022-08-03T15:23:48.949Z,25.90
2022-08-03T15:28:02.681Z,25.90
2022-08-03T15:32:13.089Z,25.70
2022-08-03T15:36:23.501Z,25.60
2022-08-03T15:40:32.352Z,25.70
2022-08-03T15:44:41.048Z,25.70
2022-08-03T15:48:50.119Z,25.90
2022-08-03T15:53:00.340Z,26.00
2022-08-03T15:57:09.103Z,26.00
2022-08-03T16:01:20.069Z,26.10
2022-08-03T16:05:29.025Z,26.20
2022-08-03T16:09:42.839Z,26.20
2022-08-03T16:14:12.871Z,26.20
2022-08-03T16:18:21.920Z,26.50
2022-08-03T16:22:30.756Z,26.70
2022-08-03T16:26:43.214Z,26.80
2022-08-03T16:30:51.953Z,27.10
2022-08-03T16:35:00.897Z,27.40
2022-08-03T16:39:09.665Z,27.40
2022-08-03T16:43:21.159Z,27.50
2022-08-03T16:47:29.959Z,27.50
2022-08-03T16:51:40.453Z,27.80
2022-08-03T16:55:59.040Z,27.80
2022-08-03T17:00:11.159Z,27.90
2022-08-03T17:04:20.068Z,28.00
2022-08-03T17:08:28.844Z,28.00
2022-08-03T17:12:40.035Z,27.80
2022-08-03T17:16:52.637Z,27.60
2022-08-03T17:21:05.312Z,27.30
2022-08-03T17:25:22.045Z,27.10
2022-08-03T17:29:45.537Z,26.80
2022-08-03T17:33:55.733Z,26.50
2022-08-03T17:38:09.011Z,26.30
2022-08-03T17:42:29.969Z,25.90
2022-08-03T17:46:41.568Z,25.50
2022-08-03T17:50:54.444Z,25.30
2022-08-03T17:59:51.565Z,24.70
2022-08-03T18:04:11.097Z,24.40
2022-08-03T18:08:28.548Z,24.30
2022-08-03T18:12:51.798Z,24.00
2022-08-03T18:17:06.260Z,23.80
2022-08-03T18:21:19.458Z,23.60
2022-08-03T18:25:45.381Z,23.60
2022-08-03T18:29:59.871Z,23.60
2022-08-03T18:34:17.949Z,23.80
2022-08-03T18:38:42.134Z,23.90
2022-08-03T18:42:56.832Z,24.00
2022-08-03T18:47:22.617Z,23.90
2022-08-03T18:51:43.448Z,23.90
2022-08-03T18:56:02.693Z,23.70
2022-08-03T19:00:16.091Z,23.50
2022-08-03T19:04:32.694Z,23.30
2022-08-03T19:08:49.108Z,23.10
2022-08-03T19:13:02.459Z,23.00
2022-08-03T19:17:14.297Z,22.80
2022-08-03T19:21:31.243Z,22.80
2022-08-03T19:25:41.497Z,22.70
2022-08-03T19:29:59.022Z,22.70
2022-08-03T19:34:12.667Z,22.60
2022-08-03T19:38:28.186Z,22.50
2022-08-03T19:42:45.342Z,22.50
2022-08-03T19:47:03.585Z,22.50
2022-08-03T19:51:15.094Z,22.30
2022-08-03T19:55:25.640Z,22.30
2022-08-03T19:59:49.596Z,22.20
2022-08-03T20:03:59.085Z,22.00
2022-08-03T20:08:09.856Z,21.90
2022-08-03T20:12:19.532Z,21.80
2022-08-03T20:16:36.484Z,21.80
2022-08-03T20:20:47.169Z,21.70
2022-08-03T20:24:58.760Z,21.70
2022-08-03T20:29:10.231Z,21.60
2022-08-03T20:33:19.516Z,21.50
2022-08-03T20:37:36.693Z,21.40
2022-08-03T20:41:48.251Z,21.30
2022-08-03T20:46:00.077Z,21.10
2022-08-03T20:50:27.410Z,21.10
2022-08-03T20:54:38.298Z,21.00
2022-08-03T20:58:51.226Z,21.00
2022-08-03T21:03:01.231Z,20.90
2022-08-03T21:07:17.781Z,20.80
2022-08-03T21:11:41.757Z,20.70
2022-08-03T21:12:55.768Z,25.00
2022-08-03T21:16:12.605Z,20.60
2022-08-03T21:20:26.938Z,20.60
2022-08-03T21:24:39.445Z,20.60
2022-08-03T21:28:49.226Z,20.60
2022-08-03T21:33:00.152Z,20.60
2022-08-03T21:37:09.292Z,20.60
2022-08-03T21:41:18.784Z,20.50
2022-08-03T21:45:27.949Z,20.50
2022-08-03T21:50:05.456Z,20.50
2022-08-03T21:54:09.729Z,20.40
2022-08-03T21:58:27.823Z,20.30
2022-08-03T22:02:39.734Z,20.30
2022-08-03T22:06:53.422Z,20.20
2022-08-03T22:11:04.212Z,20.20
2022-08-03T22:15:15.202Z,20.20
2022-08-03T22:19:24.117Z,20.20
2022-08-03T22:23:41.743Z,20.20
2022-08-03T22:27:51.255Z,20.10
2022-08-03T22:32:00.213Z,20.10
2022-08-03T22:36:11.430Z,20.10
2022-08-03T22:40:21.674Z,20.10
2022-08-03T22:44:30.887Z,20.10
2022-08-03T22:48:40.941Z,20.10
2022-08-03T22:52:50.410Z,20.00
2022-08-03T22:57:01.211Z,19.90
2022-08-03T23:01:12.898Z,19.80
2022-08-03T23:06:02.232Z,19.70
2022-08-03T23:09:56.234Z,19.70
2022-08-03T23:14:11.476Z,19.50
2022-08-03T23:18:22.787Z,19.40
2022-08-03T23:22:31.737Z,19.40
2022-08-03T23:26:42.831Z,19.40
2022-08-03T23:30:55.230Z,19.40
2022-08-03T23:36:08.991Z,19.30
2022-08-03T23:39:56.719Z,19.30
2022-08-03T23:44:07.320Z,19.20
2022-08-03T23:48:19.309Z,19.20
2022-08-03T23:52:39.637Z,19.10
2022-08-03T23:56:59.989Z,19.10
